Flight Track Log - Related Links

Times and Time Zones

All times are in EDT time to prevent confusion due to time zone crossing. See the LXJ437 flight status page for this flight to view local times or setup timezone preferences in your user account.

Time Position Orientation Groundspeed Altitude Reporting Facility
EDT Latitude Longitude Course Direction KTS MPH feet Rate Location/Type
Sat 01:05:11 PM 33.2222 -79.4661 237° Southwest 206 237 5,800  Level Jacksonville Center
Sat 01:06:11 PM 33.1806 -79.5422 237° Southwest 242 278 8,800 3,400 Climbing Jacksonville Center
Sat 01:07:11 PM 33.1306 -79.6233 234° Southwest 283 326 12,600 4,000 Climbing Jacksonville Center
Sat 01:08:11 PM 33.0825 -79.7119 237° Southwest 312 359 16,800 3,900 Climbing Jacksonville Center
Sat 01:09:11 PM 33.0286 -79.8056 236° Southwest 332 382 20,400 2,750 Climbing Jacksonville Center
Sat 01:10:00 PM 32.9012 -80.0013 237° Southwest  Level FlightAware Approximate
Sat 01:10:11 PM 32.9664 -79.9117 235° Southwest 350 403 22,300  Level Jacksonville Center
Sat 01:11:11 PM 32.9003 -80.0300 236° Southwest 385 443 23,000 1,250 Climbing Jacksonville Center
Sat 01:12:11 PM 32.8844 -80.1667 262° West 409 471 24,800 2,100 Climbing Jacksonville Center
Sat 01:13:11 PM 32.8811 -80.3078 268° West 416 479 27,200 2,200 Climbing Jacksonville Center
Sat 01:14:11 PM 32.8758 -80.4514 268° West 429 494 29,200 1,400 Climbing Jacksonville Center
Sat 01:15:11 PM 32.8681 -80.6000 266° West 435 501 30,000 400 Climbing Jacksonville Center
Sat 01:16:11 PM 32.8622 -80.7483 267° West 447 514 30,000  Level Jacksonville Center
Sat 01:17:11 PM 32.8542 -80.8944 266° West 447 514 30,000 500 Level Jacksonville Center
Sat 01:18:11 PM 32.8481 -81.0381 267° West 447 514 31,000 1,200 Climbing Jacksonville Center
Sat 01:19:11 PM 32.8397 -81.1842 266° West 442 509 32,400 1,556 Climbing Jacksonville Center
Sat 01:21:20 PM 32.8222 -81.4831 266° West 444 511 35,900 1,556 Climbing Atlanta Center
Sat 01:22:20 PM 32.8144 -81.6267 266° West 444 511 37,300 1,450 Climbing Atlanta Center
Sat 01:23:20 PM 32.8069 -81.7750 267° West 444 511 38,800 1,350 Climbing Atlanta Center
Sat 01:24:20 PM 32.7969 -81.9211 265° West 444 511 40,000 1,100 Climbing Atlanta Center
Sat 01:25:20 PM 32.7889 -82.0644 266° West 444 511 41,000 950 Climbing Atlanta Center
Sat 01:26:20 PM 32.7808 -82.2131 266° West 444 511 41,900 950 Climbing Atlanta Center
Sat 01:27:20 PM 32.7725 -82.3517 266° West 444 511 42,900 550 Climbing Atlanta Center
Sat 01:28:20 PM 32.7639 -82.4975 266° West 444 511 43,000 50 Climbing Atlanta Center
Sat 01:29:20 PM 32.7572 -82.6358 267° West 439 505 43,000  Level Atlanta Center
Sat 01:30:20 PM 32.7461 -82.7792 265° West 439 505 43,000  Level Atlanta Center
Sat 01:31:20 PM 32.7350 -82.9203 265° West 444 511 43,000  Level Atlanta Center
Sat 01:32:20 PM 32.7281 -83.0808 267° West 444 511 43,000  Level Atlanta Center
Sat 01:33:20 PM 32.7208 -83.2242 267° West 444 511 43,000  Level Atlanta Center
Sat 01:34:20 PM 32.7153 -83.3647 267° West 444 511 43,000  Level Atlanta Center
Sat 01:35:20 PM 32.7097 -83.5106 267° West 444 511 43,000  Level Atlanta Center
Sat 01:36:20 PM 32.7019 -83.6514 266° West 439 505 43,000  Level Atlanta Center
Sat 01:37:20 PM 32.6981 -83.7944 268° West 439 505 43,000  Level Atlanta Center
Sat 01:38:20 PM 32.6922 -83.9375 267° West 439 505 43,000  Level Atlanta Center
Sat 01:39:20 PM 32.6839 -84.0833 266° West 444 511 43,000  Level Atlanta Center
Sat 01:40:20 PM 32.6753 -84.2164 266° West 449 517 43,000  Level Atlanta Center
Sat 01:41:20 PM 32.6708 -84.3597 268° West 449 517 43,000  Level Atlanta Center
Sat 01:42:20 PM 32.6642 -84.5028 267° West 443 510 43,000  Level Atlanta Center
Sat 01:43:20 PM 32.6553 -84.6458 266° West 438 504 43,000  Level Atlanta Center
Sat 01:44:20 PM 32.6503 -84.7864 268° West 438 504 43,000  Level Atlanta Center
Sat 01:45:20 PM 32.6367 -84.9367 264° West 433 498 43,000  Level Atlanta Center
Sat 01:46:20 PM 32.6378 -85.0822 271° West 438 504 43,000  Level Atlanta Center
Sat 01:47:20 PM 32.6239 -85.2250 263° West 438 504 43,000  Level Atlanta Center
Sat 01:48:20 PM 32.6183 -85.3681 267° West 443 510 43,000  Level Atlanta Center
Sat 01:49:20 PM 32.6125 -85.5111 267° West 443 510 43,000  Level Atlanta Center
Sat 01:50:20 PM 32.6022 -85.6539 265° West 443 510 43,000  Level Atlanta Center
Sat 01:51:20 PM 32.5961 -85.7992 267° West 443 510 43,000  Level Atlanta Center
Sat 01:52:20 PM 32.5856 -85.9419 265° West 443 510 43,000  Level Atlanta Center
Sat 01:53:20 PM 32.5792 -86.0872 267° West 443 510 43,000  Level Atlanta Center
Sat 01:54:20 PM 32.5706 -86.2300 266° West 443 510 43,000  Level Atlanta Center
Sat 01:55:20 PM 32.5614 -86.3753 266° West 443 510 43,000  Level Atlanta Center
Sat 01:56:20 PM 32.5503 -86.5178 265° West 443 510 43,000  Level Atlanta Center
Sat 01:57:20 PM 32.5414 -86.6481 265° West 443 510 43,000  Level Atlanta Center
Sat 01:58:20 PM 32.5319 -86.7933 266° West 448 516 43,000  Level Atlanta Center
Sat 01:59:20 PM 32.5225 -86.9358 266° West 442 509 43,000  Level Atlanta Center
Sat 02:00:20 PM 32.5128 -87.0783 265° West 442 509 43,000  Level Atlanta Center
Sat 02:01:20 PM 32.5028 -87.2233 265° West 442 509 43,000  Level Atlanta Center
Sat 02:02:20 PM 32.4908 -87.3658 264° West 442 509 43,000  Level Atlanta Center
Sat 02:03:20 PM 32.4786 -87.5056 264° West 442 509 43,000  Level Atlanta Center
Sat 02:04:56 PM 32.4631 -87.7572 266° West 450 518 43,000  Level Memphis Center
Sat 02:05:56 PM 32.4533 -87.8978 265° West 443 510 43,000  Level Memphis Center
Sat 02:06:56 PM 32.4417 -88.0411 265° West 443 510 43,000  Level Memphis Center
Sat 02:07:56 PM 32.4317 -88.1814 265° West 443 510 43,000  Level Memphis Center
Sat 02:08:56 PM 32.4172 -88.3269 263° West 448 516 43,000  Level Memphis Center
Sat 02:09:56 PM 32.4069 -88.4700 265° West 443 510 43,000  Level Memphis Center
Sat 02:10:56 PM 32.3964 -88.6081 265° West 443 510 43,000  Level Memphis Center
Sat 02:11:56 PM 32.3839 -88.7508 264° West 443 510 43,000  Level Memphis Center
Sat 02:12:56 PM 32.3794 -88.8986 268° West 448 516 43,000  Level Memphis Center
Sat 02:13:56 PM 32.3831 -89.0436 272° West 442 509 43,000  Level Memphis Center
Sat 02:14:56 PM 32.3867 -89.1814 272° West 436 502 43,000  Level Memphis Center
Sat 02:15:56 PM 32.3878 -89.3242 271° West 436 502 43,000  Level Memphis Center
Sat 02:16:56 PM 32.3911 -89.4667 272° West 436 502 43,000  Level Memphis Center
Sat 02:17:56 PM 32.3942 -89.6069 272° West 436 502 43,000  Level Memphis Center
Sat 02:18:56 PM 32.3969 -89.7519 271° West 436 502 43,000  Level Memphis Center
Sat 02:19:56 PM 32.3997 -89.8922 271° West 436 502 43,000  Level Memphis Center
Sat 02:20:56 PM 32.4000 -90.0350 270° West 436 502 43,000  Level Memphis Center
Sat 02:21:56 PM 32.4025 -90.1753 271° West 436 502 43,000  Level Memphis Center
Sat 02:22:56 PM 32.4025 -90.3181 270° West 436 502 43,000  Level Memphis Center
Sat 02:23:56 PM 32.4067 -90.4606 272° West 436 502 43,000  Level Memphis Center
Sat 02:24:56 PM 32.4067 -90.6008 270° West 436 502 43,000  Level Memphis Center
Sat 02:25:56 PM 32.4083 -90.7436 271° West 436 502 43,000  Level Memphis Center
Sat 02:26:56 PM 32.4078 -90.8839 270° West 436 502 43,000  Level Memphis Center
Sat 02:29:05 PM 32.4128 -91.1625 271° West 430 495 43,000  Level Houston Center
Sat 02:30:07 PM 32.4139 -91.3336 270° West 435 501 43,000  Level Houston Center
Sat 02:30:25 PM 32.4147 -91.3675 272° West 455 524 43,000  Level Fort Worth Center
Sat 02:31:25 PM 32.4150 -91.5078 270° West 460 529 43,000  Level Fort Worth Center
Sat 02:32:25 PM 32.4175 -91.6478 271° West 448 516 43,000  Level Fort Worth Center
Sat 02:33:25 PM 32.4153 -91.7883 269° West 437 503 43,000  Level Fort Worth Center
Sat 02:34:25 PM 32.4136 -91.9336 269° West 443 510 43,000  Level Fort Worth Center
Sat 02:35:25 PM 32.4156 -92.0761 271° West 438 504 43,000  Level Fort Worth Center
Sat 02:36:25 PM 32.4153 -92.2189 270° West 438 504 43,000  Level Fort Worth Center
Sat 02:37:25 PM 32.4147 -92.3639 270° West 443 510 43,000  Level Fort Worth Center
Sat 02:38:22 PM 32.4117 -92.4861 268° West 440 506 43,000  Level Houston Center
Sat 02:39:24 PM 32.4106 -92.6583 270° West 438 504 43,000  Level Houston Center
Sat 02:40:26 PM 32.4103 -92.7869 270° West 438 504 43,000  Level Houston Center
Sat 02:41:25 PM 32.4094 -92.9425 270° West 449 517 43,000  Level Fort Worth Center
Sat 02:42:25 PM 32.4083 -93.0828 270° West 449 517 43,000  Level Fort Worth Center
Sat 02:43:25 PM 32.4047 -93.2281 268° West 431 496 43,000  Level Fort Worth Center
Sat 02:44:25 PM 32.4011 -93.3708 268° West 431 496 43,000  Level Fort Worth Center
Sat 02:45:25 PM 32.4014 -93.5136 270° West 431 496 43,000  Level Fort Worth Center
Sat 02:46:25 PM 32.3994 -93.6539 269° West 431 496 43,000  Level Fort Worth Center
Sat 02:47:25 PM 32.4036 -93.7939 272° West 426 490 43,000  Level Fort Worth Center
Sat 02:48:25 PM 32.4053 -93.9317 271° West 426 490 43,000  Level Fort Worth Center
Sat 02:49:25 PM 32.4072 -94.0742 271° West 426 490 43,000  Level Fort Worth Center
Sat 02:50:25 PM 32.4086 -94.2144 271° West 426 490 43,000  Level Fort Worth Center
Sat 02:51:25 PM 32.4100 -94.3547 271° West 426 490 43,000  Level Fort Worth Center
Sat 02:52:25 PM 32.4069 -94.4925 269° West 426 490 43,000  Level Fort Worth Center
Sat 02:53:25 PM 32.4019 -94.6356 268° West 426 490 43,000 -50 Level Fort Worth Center
Sat 02:54:25 PM 32.4008 -94.7758 270° West 432 497 42,900 -1,000 Descending Fort Worth Center
Sat 02:55:25 PM 32.3953 -94.9136 267° West 427 491 41,000 -2,300 Descending Fort Worth Center
Sat 02:56:25 PM 32.3978 -95.0392 271° West 426 490 38,300 -2,650 Descending Fort Worth Center
Sat 02:57:25 PM 32.4086 -95.1767 275° West 420 483 35,700 -3,100 Descending Fort Worth Center
Sat 02:58:25 PM 32.4275 -95.3114 279° West 420 483 32,100 -3,550 Descending Fort Worth Center
Sat 02:59:25 PM 32.4467 -95.4539 279° West 430 495 28,600 -3,550 Descending Fort Worth Center
Sat 03:00:25 PM 32.4675 -95.5961 280° West 430 495 25,000 -3,750 Descending Fort Worth Center
Sat 03:01:25 PM 32.4883 -95.7508 279° West 435 501 21,100 -3,600 Descending Fort Worth Center
Sat 03:02:25 PM 32.5025 -95.8811 277° West 422 486 17,800 -3,500 Descending Fort Worth Center
Sat 03:03:25 PM 32.5208 -96.0042 280° West 400 460 14,100 -3,100 Descending Fort Worth Center
Sat 03:04:25 PM 32.5344 -96.1222 278° West 384 442 11,600 -2,250 Descending Fort Worth Center
Sat 03:05:25 PM 32.5503 -96.2278 280° West 340 391 9,600 -1,400 Descending Fort Worth Center
Sat 03:06:25 PM 32.5614 -96.3264 278° West 312 359 8,800 -1,200 Descending Fort Worth Center
Sat 03:07:25 PM 32.6081 -96.4097 304° West 300 345 7,200 -1,350 Descending Fort Worth Center
Sat 03:08:25 PM 32.6525 -96.4881 304° West 300 345 6,100 -1,000 Descending Fort Worth Center
Sat 03:09:25 PM 32.7031 -96.5542 312° West 280 322 5,200 -550 Descending Fort Worth Center
Sat 03:10:25 PM 32.7642 -96.6131 321° Northwest 275 316 5,000 -141 Descending Fort Worth Center
Sat 03:10:50 PM 32.7833 -96.6333 318° Northwest 274 315 5,000  Level Dallas / Fort Worth TRACON
Sat 03:11:50 PM 32.8500 -96.6833 328° Northwest 276 318 5,000 -400 Level Dallas / Fort Worth TRACON
Sat 03:12:50 PM 32.9000 -96.7500 312° West 249 287 4,200 -950 Descending Dallas / Fort Worth TRACON
Sat 03:13:50 PM 32.9167 -96.8167 287° West 214 246 3,100 -1,000 Descending Dallas / Fort Worth TRACON
Sat 03:14:50 PM 32.9167 -96.8667 270° West 132 152 2,200 -1,050 Descending Dallas / Fort Worth TRACON
Sat 03:15:50 PM 32.8833 -96.8833 203° Southwest 126 145 1,000 -1,200 Descending Dallas / Fort Worth TRACON

Login

Don't have an account? Register now (free) for customized features, flight alerts, and more!